sensor_id;sensor_type;location;lat;lon;timestamp;pressure;altitude;pressure_sealevel;temperature;humidity
19600;BME280;9947;57.722;12.012;2023-07-29T00:01:25;100088.22;;;12.84;100.00
19600;BME280;9947;57.722;12.012;2023-07-29T00:03:52;100084.50;;;12.85;100.00
19600;BME280;9947;57.722;12.012;2023-07-29T00:06:19;100084.50;;;12.85;100.00
19600;BME280;9947;57.722;12.012;2023-07-29T00:08:47;100079.78;;;12.87;100.00
19600;BME280;9947;57.722;12.012;2023-07-29T00:11:15;100069.94;;;12.86;100.00
19600;BME280;9947;57.722;12.012;2023-07-29T00:13:47;100075.34;;;12.86;100.00
19600;BME280;9947;57.722;12.012;2023-07-29T00:18:44;100068.16;;;12.94;100.00
19600;BME280;9947;57.722;12.012;2023-07-29T00:21:11;100079.19;;;12.93;100.00
19600;BME280;9947;57.722;12.012;2023-07-29T00:23:40;100076.75;;;12.90;100.00
19600;BME280;9947;57.722;12.012;2023-07-29T00:28:38;100074.34;;;12.87;100.00
19600;BME280;9947;57.722;12.012;2023-07-29T00:31:09;100079.06;;;12.85;100.00
19600;BME280;9947;57.722;12.012;2023-07-29T00:33:37;100074.34;;;12.87;100.00
19600;BME280;9947;57.722;12.012;2023-07-29T00:38:32;100072.34;;;12.89;100.00
19600;BME280;9947;57.722;12.012;2023-07-29T00:41:01;100070.63;;;12.88;100.00
19600;BME280;9947;57.722;12.012;2023-07-29T00:43:30;100073.66;;;12.85;100.00
19600;BME280;9947;57.722;12.012;2023-07-29T00:46:00;100069.13;;;12.76;100.00
19600;BME280;9947;57.722;12.012;2023-07-29T00:48:31;100067.84;;;12.70;100.00
19600;BME280;9947;57.722;12.012;2023-07-29T00:51:00;100062.16;;;12.63;100.00
19600;BME280;9947;57.722;12.012;2023-07-29T00:53:29;100066.88;;;12.61;100.00
19600;BME280;9947;57.722;12.012;2023-07-29T00:55:57;100064.75;;;12.55;100.00
19600;BME280;9947;57.722;12.012;2023-07-29T00:58:27;100061.75;;;12.49;100.00
19600;BME280;9947;57.722;12.012;2023-07-29T01:00:55;100060.88;;;12.48;100.00
19600;BME280;9947;57.722;12.012;2023-07-29T01:03:23;100059.47;;;12.44;100.00
19600;BME280;9947;57.722;12.012;2023-07-29T01:08:38;100055.91;;;12.44;100.00
19600;BME280;9947;57.722;12.012;2023-07-29T01:13:44;100045.66;;;12.38;100.00
19600;BME280;9947;57.722;12.012;2023-07-29T01:16:21;100046.50;;;12.38;100.00
19600;BME280;9947;57.722;12.012;2023-07-29T01:26:29;100043.53;;;12.31;100.00
19600;BME280;9947;57.722;12.012;2023-07-29T01:28:56;100035.97;;;12.35;100.00
19600;BME280;9947;57.722;12.012;2023-07-29T01:31:32;100045.66;;;12.38;100.00
19600;BME280;9947;57.722;12.012;2023-07-29T01:34:06;100033.97;;;12.37;100.00
19600;BME280;9947;57.722;12.012;2023-07-29T01:36:39;100029.25;;;12.39;100.00
19600;BME280;9947;57.722;12.012;2023-07-29T01:41:39;100034.81;;;12.38;100.00
19600;BME280;9947;57.722;12.012;2023-07-29T01:44:07;100034.41;;;12.32;100.00
19600;BME280;9947;57.722;12.012;2023-07-29T01:46:35;100027.88;;;12.25;100.00
19600;BME280;9947;57.722;12.012;2023-07-29T01:51:28;100041.13;;;12.19;100.00
19600;BME280;9947;57.722;12.012;2023-07-29T01:53:56;100035.13;;;12.15;100.00
19600;BME280;9947;57.722;12.012;2023-07-29T01:56:24;100032.88;;;12.11;100.00
19600;BME280;9947;57.722;12.012;2023-07-29T01:58:58;100028.16;;;12.13;100.00
19600;BME280;9947;57.722;12.012;2023-07-29T02:03:55;100020.91;;;12.03;100.00
19600;BME280;9947;57.722;12.012;2023-07-29T02:09:07;100025.91;;;11.98;100.00
19600;BME280;9947;57.722;12.012;2023-07-29T02:11:34;100014.06;;;11.99;100.00
19600;BME280;9947;57.722;12.012;2023-07-29T02:14:03;100014.06;;;11.99;100.00
19600;BME280;9947;57.722;12.012;2023-07-29T02:16:32;100017.03;;;11.96;100.00
19600;BME280;9947;57.722;12.012;2023-07-29T02:19:00;100011.06;;;11.93;100.00
19600;BME280;9947;57.722;12.012;2023-07-29T02:21:28;100007.50;;;11.92;100.00
19600;BME280;9947;57.722;12.012;2023-07-29T02:23:55;100010.66;;;11.88;100.00
19600;BME280;9947;57.722;12.012;2023-07-29T02:26:24;100003.38;;;11.88;100.00
19600;BME280;9947;57.722;12.012;2023-07-29T02:28:51;100004.97;;;11.81;100.00
19600;BME280;9947;57.722;12.012;2023-07-29T02:31:23;100015.09;;;11.79;100.00
19600;BME280;9947;57.722;12.012;2023-07-29T02:33:50;100006.97;;;11.79;100.00
19600;BME280;9947;57.722;12.012;2023-07-29T02:36:19;100011.53;;;11.79;100.00
19600;BME280;9947;57.722;12.012;2023-07-29T02:38:46;100010.66;;;11.78;100.00
19600;BME280;9947;57.722;12.012;2023-07-29T02:41:13;100005.78;;;11.72;100.00
19600;BME280;9947;57.722;12.012;2023-07-29T02:43:42;100009.50;;;11.71;100.00
19600;BME280;9947;57.722;12.012;2023-07-29T02:51:32;100007.78;;;11.60;100.00
19600;BME280;9947;57.722;12.012;2023-07-29T02:53:59;100004.50;;;11.66;100.00
19600;BME280;9947;57.722;12.012;2023-07-29T02:56:29;99996.38;;;11.66;100.00
19600;BME280;9947;57.722;12.012;2023-07-29T02:58:58;99995.38;;;11.67;100.00
19600;BME280;9947;57.722;12.012;2023-07-29T03:01:26;99987.41;;;11.76;100.00
19600;BME280;9947;57.722;12.012;2023-07-29T03:04:00;99992.97;;;11.84;100.00
19600;BME280;9947;57.722;12.012;2023-07-29T03:06:30;99989.72;;;11.80;100.00
19600;BME280;9947;57.722;12.012;2023-07-29T03:09:01;99994.22;;;11.70;100.00
19600;BME280;9947;57.722;12.012;2023-07-29T03:13:57;99983.28;;;11.71;100.00
19600;BME280;9947;57.722;12.012;2023-07-29T03:16:24;99985.38;;;11.68;100.00
19600;BME280;9947;57.722;12.012;2023-07-29T03:18:53;99986.94;;;11.70;100.00
19600;BME280;9947;57.722;12.012;2023-07-29T03:21:21;99990.97;;;11.76;100.00
19600;BME280;9947;57.722;12.012;2023-07-29T03:23:49;99989.72;;;11.80;100.00
19600;BME280;9947;57.722;12.012;2023-07-29T03:29:15;99980.28;;;11.84;100.00
19600;BME280;9947;57.722;12.012;2023-07-29T03:31:42;99980.56;;;11.91;100.00
19600;BME280;9947;57.722;12.012;2023-07-29T03:36:53;99981.00;;;11.86;100.00
19600;BME280;9947;57.722;12.012;2023-07-29T03:39:22;99975.72;;;11.94;100.00
19600;BME280;9947;57.722;12.012;2023-07-29T03:41:49;99978.56;;;11.93;100.00
19600;BME280;9947;57.722;12.012;2023-07-29T03:44:16;99976.16;;;11.99;100.00
19600;BME280;9947;57.722;12.012;2023-07-29T03:46:44;99966.84;;;12.12;100.00
19600;BME280;9947;57.722;12.012;2023-07-29T03:49:12;99969.72;;;12.10;100.00
19600;BME280;9947;57.722;12.012;2023-07-29T03:51:40;99966.59;;;12.05;100.00
19600;BME280;9947;57.722;12.012;2023-07-29T03:56:38;99973.28;;;12.11;100.00
19600;BME280;9947;57.722;12.012;2023-07-29T03:59:06;99973.59;;;11.98;100.00
19600;BME280;9947;57.722;12.012;2023-07-29T04:01:34;99971.28;;;12.03;100.00
19600;BME280;9947;57.722;12.012;2023-07-29T04:04:04;99979.00;;;11.98;100.00
19600;BME280;9947;57.722;12.012;2023-07-29T04:06:32;99976.16;;;11.99;100.00
19600;BME280;9947;57.722;12.012;2023-07-29T04:09:00;99968.16;;;12.08;100.00
19600;BME280;9947;57.722;12.012;2023-07-29T04:11:28;99974.41;;;12.08;100.00
19600;BME280;9947;57.722;12.012;2023-07-29T04:14:14;99968.56;;;12.13;100.00
19600;BME280;9947;57.722;12.012;2023-07-29T04:16:44;99972.69;;;12.17;100.00
19600;BME280;9947;57.722;12.012;2023-07-29T04:21:57;99968.06;;;12.37;100.00
19600;BME280;9947;57.722;12.012;2023-07-29T04:24:42;99970.06;;;12.34;100.00
19600;BME280;9947;57.722;12.012;2023-07-29T04:30:27;99961.44;;;12.49;100.00
19600;BME280;9947;57.722;12.012;2023-07-29T04:32:55;99955.25;;;12.66;100.00
19600;BME280;9947;57.722;12.012;2023-07-29T04:35:22;99959.72;;;12.57;100.00
19600;BME280;9947;57.722;12.012;2023-07-29T04:37:49;99960.06;;;12.72;100.00
19600;BME280;9947;57.722;12.012;2023-07-29T04:40:16;99962.50;;;13.03;100.00
19600;BME280;9947;57.722;12.012;2023-07-29T04:42:43;99964.22;;;12.94;100.00
19600;BME280;9947;57.722;12.012;2023-07-29T04:47:37;99967.59;;;13.06;100.00
19600;BME280;9947;57.722;12.012;2023-07-29T04:52:28;99964.13;;;13.13;100.00
19600;BME280;9947;57.722;12.012;2023-07-29T04:54:55;99963.19;;;13.32;100.00
19600;BME280;9947;57.722;12.012;2023-07-29T04:57:23;99956.44;;;13.54;100.00
19600;BME280;9947;57.722;12.012;2023-07-29T04:59:51;99972.63;;;13.81;100.00
19600;BME280;9947;57.722;12.012;2023-07-29T05:02:22;99966.16;;;14.00;100.00
19600;BME280;9947;57.722;12.012;2023-07-29T05:04:53;99965.78;;;13.95;100.00
19600;BME280;9947;57.722;12.012;2023-07-29T05:07:20;99960.72;;;14.00;100.00
19600;BME280;9947;57.722;12.012;2023-07-29T05:09:48;99965.63;;;13.97;100.00
19600;BME280;9947;57.722;12.012;2023-07-29T05:12:16;99966.63;;;13.78;100.00
19600;BME280;9947;57.722;12.012;2023-07-29T05:14:43;99966.19;;;13.82;100.00
19600;BME280;9947;57.722;12.012;2023-07-29T05:17:11;99957.63;;;13.77;100.00
19600;BME280;9947;57.722;12.012;2023-07-29T05:19:39;99958.13;;;13.73;100.00
19600;BME280;9947;57.722;12.012;2023-07-29T05:24:33;99966.34;;;13.81;100.00
19600;BME280;9947;57.722;12.012;2023-07-29T05:27:01;99971.00;;;13.88;100.00
19600;BME280;9947;57.722;12.012;2023-07-29T05:29:30;99968.09;;;14.08;100.00
19600;BME280;9947;57.722;12.012;2023-07-29T05:31:58;99965.59;;;14.14;100.00
19600;BME280;9947;57.722;12.012;2023-07-29T05:34:26;99967.13;;;14.17;100.00
19600;BME280;9947;57.722;12.012;2023-07-29T05:36:53;99958.44;;;14.13;100.00
19600;BME280;9947;57.722;12.012;2023-07-29T05:39:21;99965.91;;;14.11;100.00
19600;BME280;9947;57.722;12.012;2023-07-29T05:41:51;99962.81;;;14.32;100.00
19600;BME280;9947;57.722;12.012;2023-07-29T05:46:48;99969.97;;;14.59;100.00
19600;BME280;9947;57.722;12.012;2023-07-29T05:49:17;99958.84;;;14.44;100.00
19600;BME280;9947;57.722;12.012;2023-07-29T05:51:44;99962.97;;;14.57;100.00
19600;BME280;9947;57.722;12.012;2023-07-29T05:54:14;99969.16;;;14.67;100.00
19600;BME280;9947;57.722;12.012;2023-07-29T05:56:43;99965.41;;;14.60;100.00
19600;BME280;9947;57.722;12.012;2023-07-29T05:59:14;99953.75;;;14.49;100.00
19600;BME280;9947;57.722;12.012;2023-07-29T06:01:43;99959.78;;;14.61;100.00
19600;BME280;9947;57.722;12.012;2023-07-29T06:04:12;99958.28;;;14.67;100.00
19600;BME280;9947;57.722;12.012;2023-07-29T06:06:41;99953.53;;;14.69;100.00
19600;BME280;9947;57.722;12.012;2023-07-29T06:09:11;99955.94;;;14.80;100.00
19600;BME280;9947;57.722;12.012;2023-07-29T06:11:40;99954.47;;;14.86;100.00
19600;BME280;9947;57.722;12.012;2023-07-29T06:14:10;99944.13;;;14.97;100.00
19600;BME280;9947;57.722;12.012;2023-07-29T06:16:39;99947.25;;;15.27;100.00
19600;BME280;9947;57.722;12.012;2023-07-29T06:21:33;99947.34;;;15.84;100.00
19600;BME280;9947;57.722;12.012;2023-07-29T06:24:02;99939.16;;;15.84;100.00
19600;BME280;9947;57.722;12.012;2023-07-29T06:26:29;99934.53;;;16.09;100.00
19600;BME280;9947;57.722;12.012;2023-07-29T06:28:59;99933.47;;;16.42;100.00
19600;BME280;9947;57.722;12.012;2023-07-29T06:31:28;99937.63;;;16.77;100.00
19600;BME280;9947;57.722;12.012;2023-07-29T06:33:56;99928.59;;;16.77;100.00
19600;BME280;9947;57.722;12.012;2023-07-29T06:36:24;99938.63;;;17.15;100.00
19600;BME280;9947;57.722;12.012;2023-07-29T06:38:52;99932.00;;;17.10;100.00
19600;BME280;9947;57.722;12.012;2023-07-29T06:41:22;99936.94;;;17.14;100.00
19600;BME280;9947;57.722;12.012;2023-07-29T06:43:53;99938.78;;;17.22;100.00
19600;BME280;9947;57.722;12.012;2023-07-29T06:46:21;99932.91;;;17.33;100.00
19600;BME280;9947;57.722;12.012;2023-07-29T06:48:49;99926.41;;;17.57;100.00
19600;BME280;9947;57.722;12.012;2023-07-29T06:51:20;99941.38;;;17.46;100.00
19600;BME280;9947;57.722;12.012;2023-07-29T06:53:49;99934.03;;;17.47;100.00
19600;BME280;9947;57.722;12.012;2023-07-29T06:56:17;99935.63;;;17.33;100.00
19600;BME280;9947;57.722;12.012;2023-07-29T06:58:46;99935.50;;;17.26;100.00
19600;BME280;9947;57.722;12.012;2023-07-29T07:01:13;99926.78;;;17.31;100.00
19600;BME280;9947;57.722;12.012;2023-07-29T07:03:41;99933.38;;;17.37;100.00
19600;BME280;9947;57.722;12.012;2023-07-29T07:06:09;99931.19;;;17.32;100.00
19600;BME280;9947;57.722;12.012;2023-07-29T07:08:39;99929.63;;;17.61;100.00
19600;BME280;9947;57.722;12.012;2023-07-29T07:11:08;99924.72;;;17.33;100.00
19600;BME280;9947;57.722;12.012;2023-07-29T07:13:36;99931.69;;;17.36;100.00
19600;BME280;9947;57.722;12.012;2023-07-29T07:18:29;99922.53;;;17.51;100.00
19600;BME280;9947;57.722;12.012;2023-07-29T07:20:56;99925.56;;;17.56;100.00
19600;BME280;9947;57.722;12.012;2023-07-29T07:23:26;99917.06;;;17.51;100.00
19600;BME280;9947;57.722;12.012;2023-07-29T07:25:57;99919.16;;;17.49;100.00
19600;BME280;9947;57.722;12.012;2023-07-29T07:28:27;99922.38;;;17.76;100.00
19600;BME280;9947;57.722;12.012;2023-07-29T07:30:56;99917.94;;;17.52;100.00
19600;BME280;9947;57.722;12.012;2023-07-29T07:33:25;99924.81;;;17.71;100.00
19600;BME280;9947;57.722;12.012;2023-07-29T07:35:54;99915.13;;;17.60;100.00
19600;BME280;9947;57.722;12.012;2023-07-29T07:38:25;99920.13;;;17.79;100.00
19600;BME280;9947;57.722;12.012;2023-07-29T07:40:57;99916.53;;;18.16;100.00
19600;BME280;9947;57.722;12.012;2023-07-29T07:43:24;99914.09;;;18.51;100.00
19600;BME280;9947;57.722;12.012;2023-07-29T07:45:56;99909.19;;;18.32;100.00
19600;BME280;9947;57.722;12.012;2023-07-29T07:48:24;99916.66;;;18.67;100.00
19600;BME280;9947;57.722;12.012;2023-07-29T07:50:53;99924.88;;;18.67;100.00
19600;BME280;9947;57.722;12.012;2023-07-29T07:53:22;99916.94;;;18.72;100.00
19600;BME280;9947;57.722;12.012;2023-07-29T07:55:51;99912.13;;;19.25;100.00
19600;BME280;9947;57.722;12.012;2023-07-29T07:58:20;99907.34;;;19.13;100.00
19600;BME280;9947;57.722;12.012;2023-07-29T08:00:47;99907.34;;;18.76;100.00
19600;BME280;9947;57.722;12.012;2023-07-29T08:03:15;99901.41;;;19.09;100.00
19600;BME280;9947;57.722;12.012;2023-07-29T08:05:42;99895.38;;;18.99;100.00
19600;BME280;9947;57.722;12.012;2023-07-29T08:08:09;99895.59;;;18.83;100.00
19600;BME280;9947;57.722;12.012;2023-07-29T08:10:36;99896.91;;;19.23;100.00
19600;BME280;9947;57.722;12.012;2023-07-29T08:13:05;99897.94;;;19.36;100.00
19600;BME280;9947;57.722;12.012;2023-07-29T08:15:34;99900.53;;;19.45;100.00
19600;BME280;9947;57.722;12.012;2023-07-29T08:18:01;99888.69;;;19.23;100.00
19600;BME280;9947;57.722;12.012;2023-07-29T08:20:32;99896.94;;;19.44;100.00
19600;BME280;9947;57.722;12.012;2023-07-29T08:23:08;99886.94;;;19.15;100.00
19600;BME280;9947;57.722;12.012;2023-07-29T08:25:37;99884.19;;;19.15;100.00
19600;BME280;9947;57.722;12.012;2023-07-29T08:28:05;99882.63;;;19.63;100.00
19600;BME280;9947;57.722;12.012;2023-07-29T08:30:35;99883.44;;;19.85;100.00
19600;BME280;9947;57.722;12.012;2023-07-29T08:33:04;99878.66;;;20.22;100.00
19600;BME280;9947;57.722;12.012;2023-07-29T08:35:31;99881.28;;;20.37;100.00
19600;BME280;9947;57.722;12.012;2023-07-29T08:37:58;99871.84;;;19.62;100.00
19600;BME280;9947;57.722;12.012;2023-07-29T08:40:29;99880.75;;;19.49;100.00
19600;BME280;9947;57.722;12.012;2023-07-29T08:42:59;99881.31;;;19.02;100.00
19600;BME280;9947;57.722;12.012;2023-07-29T08:45:31;99885.97;;;18.87;100.00
19600;BME280;9947;57.722;12.012;2023-07-29T08:48:07;99891.69;;;19.06;100.00
19600;BME280;9947;57.722;12.012;2023-07-29T08:50:36;99887.44;;;19.25;100.00
19600;BME280;9947;57.722;12.012;2023-07-29T08:53:05;99900.81;;;19.14;100.00
19600;BME280;9947;57.722;12.012;2023-07-29T08:55:34;99894.97;;;18.81;100.00
19600;BME280;9947;57.722;12.012;2023-07-29T08:58:04;99890.31;;;18.37;100.00
19600;BME280;9947;57.722;12.012;2023-07-29T09:00:51;99891.91;;;18.46;100.00
19600;BME280;9947;57.722;12.012;2023-07-29T09:03:23;99890.59;;;18.71;100.00
19600;BME280;9947;57.722;12.012;2023-07-29T09:05:54;99890.22;;;18.89;100.00
19600;BME280;9947;57.722;12.012;2023-07-29T09:08:22;99892.81;;;19.12;100.00
19600;BME280;9947;57.722;12.012;2023-07-29T09:10:51;99884.25;;;19.22;100.00
19600;BME280;9947;57.722;12.012;2023-07-29T09:13:20;99886.03;;;19.51;100.00
19600;BME280;9947;57.722;12.012;2023-07-29T09:15:48;99890.38;;;19.24;100.00
19600;BME280;9947;57.722;12.012;2023-07-29T09:18:16;99894.69;;;19.12;100.00
19600;BME280;9947;57.722;12.012;2023-07-29T09:20:51;99891.19;;;19.18;100.00
19600;BME280;9947;57.722;12.012;2023-07-29T09:23:19;99892.63;;;18.99;100.00
19600;BME280;9947;57.722;12.012;2023-07-29T09:26:00;99900.75;;;19.07;100.00
19600;BME280;9947;57.722;12.012;2023-07-29T09:28:34;99900.00;;;18.98;100.00
19600;BME280;9947;57.722;12.012;2023-07-29T09:31:02;99900.38;;;18.95;100.00
19600;BME280;9947;57.722;12.012;2023-07-29T09:33:33;99894.13;;;19.37;100.00
19600;BME280;9947;57.722;12.012;2023-07-29T09:36:08;99890.63;;;19.86;100.00
19600;BME280;9947;57.722;12.012;2023-07-29T09:38:37;99888.47;;;20.38;100.00
19600;BME280;9947;57.722;12.012;2023-07-29T09:41:05;99890.47;;;20.22;100.00
19600;BME280;9947;57.722;12.012;2023-07-29T09:43:35;99883.66;;;19.84;100.00
19600;BME280;9947;57.722;12.012;2023-07-29T09:46:02;99876.75;;;19.94;100.00
19600;BME280;9947;57.722;12.012;2023-07-29T09:48:32;99891.56;;;20.28;100.00
19600;BME280;9947;57.722;12.012;2023-07-29T09:51:05;99895.00;;;20.37;100.00
19600;BME280;9947;57.722;12.012;2023-07-29T09:53:42;99882.41;;;20.83;100.00
19600;BME280;9947;57.722;12.012;2023-07-29T09:56:10;99890.59;;;20.70;100.00
19600;BME280;9947;57.722;12.012;2023-07-29T09:58:38;99884.16;;;20.98;100.00
19600;BME280;9947;57.722;12.012;2023-07-29T10:01:06;99883.69;;;21.35;100.00
19600;BME280;9947;57.722;12.012;2023-07-29T10:03:34;99875.59;;;21.27;100.00
19600;BME280;9947;57.722;12.012;2023-07-29T10:06:06;99884.97;;;21.79;100.00
19600;BME280;9947;57.722;12.012;2023-07-29T10:08:37;99877.59;;;22.06;100.00
19600;BME280;9947;57.722;12.012;2023-07-29T10:11:07;99877.38;;;22.21;100.00
19600;BME280;9947;57.722;12.012;2023-07-29T10:13:35;99880.13;;;22.07;100.00
19600;BME280;9947;57.722;12.012;2023-07-29T10:16:03;99872.00;;;22.59;100.00
19600;BME280;9947;57.722;12.012;2023-07-29T10:18:33;99867.81;;;22.43;100.00
19600;BME280;9947;57.722;12.012;2023-07-29T10:21:02;99870.13;;;22.53;100.00
19600;BME280;9947;57.722;12.012;2023-07-29T10:23:38;99862.78;;;21.94;100.00
19600;BME280;9947;57.722;12.012;2023-07-29T10:26:11;99863.41;;;21.76;100.00
19600;BME280;9947;57.722;12.012;2023-07-29T10:28:41;99872.00;;;21.27;100.00
19600;BME280;9947;57.722;12.012;2023-07-29T10:31:11;99872.00;;;20.72;100.00
19600;BME280;9947;57.722;12.012;2023-07-29T10:33:41;99871.78;;;20.32;100.00
19600;BME280;9947;57.722;12.012;2023-07-29T10:36:10;99871.31;;;20.57;100.00
19600;BME280;9947;57.722;12.012;2023-07-29T10:38:39;99877.69;;;20.36;100.00
19600;BME280;9947;57.722;12.012;2023-07-29T10:41:07;99873.53;;;20.40;100.00
19600;BME280;9947;57.722;12.012;2023-07-29T10:43:37;99868.72;;;20.49;100.00
19600;BME280;9947;57.722;12.012;2023-07-29T10:46:18;99869.97;;;20.94;100.00
19600;BME280;9947;57.722;12.012;2023-07-29T10:48:52;99872.69;;;21.35;100.00
19600;BME280;9947;57.722;12.012;2023-07-29T10:51:24;99868.78;;;21.16;100.00
19600;BME280;9947;57.722;12.012;2023-07-29T10:53:59;99867.81;;;21.50;100.00
19600;BME280;9947;57.722;12.012;2023-07-29T10:56:29;99869.00;;;21.21;100.00
19600;BME280;9947;57.722;12.012;2023-07-29T10:58:59;99874.03;;;21.05;100.00
19600;BME280;9947;57.722;12.012;2023-07-29T11:01:27;99876.22;;;20.68;100.00
19600;BME280;9947;57.722;12.012;2023-07-29T11:09:54;99885.03;;;19.16;100.00
19600;BME280;9947;57.722;12.012;2023-07-29T11:12:44;99892.28;;;19.59;100.00
19600;BME280;9947;57.722;12.012;2023-07-29T11:15:15;99881.81;;;19.69;100.00
19600;BME280;9947;57.722;12.012;2023-07-29T11:17:44;99881.00;;;19.97;100.00
19600;BME280;9947;57.722;12.012;2023-07-29T11:20:12;99881.09;;;20.38;100.00
19600;BME280;9947;57.722;12.012;2023-07-29T11:22:40;99875.88;;;20.91;100.00
19600;BME280;9947;57.722;12.012;2023-07-29T11:25:11;99882.22;;;20.85;100.00
19600;BME280;9947;57.722;12.012;2023-07-29T11:27:39;99881.63;;;21.03;100.00
19600;BME280;9947;57.722;12.012;2023-07-29T11:30:09;99878.44;;;20.92;100.00
19600;BME280;9947;57.722;12.012;2023-07-29T11:32:40;99881.09;;;20.73;100.00
19600;BME280;9947;57.722;12.012;2023-07-29T11:35:08;99881.47;;;21.17;100.00
19600;BME280;9947;57.722;12.012;2023-07-29T11:37:38;99877.81;;;21.04;100.00
19600;BME280;9947;57.722;12.012;2023-07-29T11:40:13;99880.47;;;20.77;100.00
19600;BME280;9947;57.722;12.012;2023-07-29T11:42:43;99879.28;;;20.52;100.00
19600;BME280;9947;57.722;12.012;2023-07-29T11:45:11;99885.78;;;20.44;100.00
19600;BME280;9947;57.722;12.012;2023-07-29T11:47:38;99888.75;;;20.43;100.00
19600;BME280;9947;57.722;12.012;2023-07-29T11:50:06;99879.72;;;20.97;100.00
19600;BME280;9947;57.722;12.012;2023-07-29T11:52:35;99880.94;;;21.35;100.00
19600;BME280;9947;57.722;12.012;2023-07-29T11:55:04;99879.78;;;21.23;100.00
19600;BME280;9947;57.722;12.012;2023-07-29T11:57:35;99878.50;;;21.12;100.00
19600;BME280;9947;57.722;12.012;2023-07-29T12:00:04;99883.31;;;21.65;100.00
19600;BME280;9947;57.722;12.012;2023-07-29T12:02:33;99874.34;;;21.30;100.00
19600;BME280;9947;57.722;12.012;2023-07-29T12:05:03;99878.41;;;20.45;100.00
19600;BME280;9947;57.722;12.012;2023-07-29T12:07:31;99880.25;;;20.38;100.00
19600;BME280;9947;57.722;12.012;2023-07-29T12:10:01;99877.69;;;20.71;100.00
19600;BME280;9947;57.722;12.012;2023-07-29T12:12:29;99878.47;;;21.06;100.00
19600;BME280;9947;57.722;12.012;2023-07-29T12:14:58;99875.69;;;20.99;100.00
19600;BME280;9947;57.722;12.012;2023-07-29T12:17:27;99871.13;;;21.19;100.00
19600;BME280;9947;57.722;12.012;2023-07-29T12:19:56;99871.22;;;20.85;100.00
19600;BME280;9947;57.722;12.012;2023-07-29T12:22:24;99871.97;;;20.66;100.00
19600;BME280;9947;57.722;12.012;2023-07-29T12:24:52;99865.22;;;20.68;100.00
19600;BME280;9947;57.722;12.012;2023-07-29T12:27:22;99861.75;;;20.53;100.00
19600;BME280;9947;57.722;12.012;2023-07-29T12:29:54;99858.25;;;20.66;100.00
19600;BME280;9947;57.722;12.012;2023-07-29T12:32:26;99861.84;;;20.66;100.00
19600;BME280;9947;57.722;12.012;2023-07-29T12:34:54;99849.28;;;20.50;100.00
19600;BME280;9947;57.722;12.012;2023-07-29T12:37:31;99854.16;;;20.55;100.00
19600;BME280;9947;57.722;12.012;2023-07-29T12:39:58;99853.16;;;20.62;100.00
19600;BME280;9947;57.722;12.012;2023-07-29T12:42:26;99850.56;;;20.54;100.00
19600;BME280;9947;57.722;12.012;2023-07-29T12:44:53;99848.88;;;20.53;100.00
19600;BME280;9947;57.722;12.012;2023-07-29T12:47:21;99843.19;;;20.55;100.00
19600;BME280;9947;57.722;12.012;2023-07-29T12:49:49;99841.91;;;20.51;100.00
19600;BME280;9947;57.722;12.012;2023-07-29T12:52:18;99839.25;;;20.77;100.00
19600;BME280;9947;57.722;12.012;2023-07-29T12:54:45;99841.53;;;20.60;100.00
19600;BME280;9947;57.722;12.012;2023-07-29T12:57:12;99837.78;;;20.75;100.00
19600;BME280;9947;57.722;12.012;2023-07-29T12:59:39;99840.94;;;20.72;100.00
19600;BME280;9947;57.722;12.012;2023-07-29T13:02:06;99845.16;;;20.68;100.00
19600;BME280;9947;57.722;12.012;2023-07-29T13:04:38;99834.88;;;20.83;100.00
19600;BME280;9947;57.722;12.012;2023-07-29T13:07:11;99834.47;;;20.86;100.00
19600;BME280;9947;57.722;12.012;2023-07-29T13:09:38;99836.38;;;20.92;100.00
19600;BME280;9947;57.722;12.012;2023-07-29T13:12:06;99827.56;;;21.16;100.00
19600;BME280;9947;57.722;12.012;2023-07-29T13:14:33;99828.16;;;21.05;100.00
19600;BME280;9947;57.722;12.012;2023-07-29T13:17:00;99825.03;;;21.15;100.00
19600;BME280;9947;57.722;12.012;2023-07-29T13:19:29;99828.63;;;21.22;100.00
19600;BME280;9947;57.722;12.012;2023-07-29T13:21:57;99828.69;;;21.42;100.00
19600;BME280;9947;57.722;12.012;2023-07-29T13:24:26;99826.56;;;21.50;100.00
19600;BME280;9947;57.722;12.012;2023-07-29T13:26:55;99826.78;;;21.55;100.00
19600;BME280;9947;57.722;12.012;2023-07-29T13:29:22;99827.88;;;21.88;100.00
19600;BME280;9947;57.722;12.012;2023-07-29T13:31:49;99826.78;;;21.95;100.00
19600;BME280;9947;57.722;12.012;2023-07-29T13:34:18;99820.00;;;22.11;100.00
19600;BME280;9947;57.722;12.012;2023-07-29T13:36:47;99833.31;;;22.27;100.00
19600;BME280;9947;57.722;12.012;2023-07-29T13:39:18;99824.03;;;22.15;100.00
19600;BME280;9947;57.722;12.012;2023-07-29T13:41:48;99828.06;;;21.99;100.00
19600;BME280;9947;57.722;12.012;2023-07-29T13:44:19;99823.19;;;21.75;100.00
19600;BME280;9947;57.722;12.012;2023-07-29T13:46:47;99828.06;;;21.53;100.00
19600;BME280;9947;57.722;12.012;2023-07-29T13:49:14;99822.75;;;21.32;100.00
19600;BME280;9947;57.722;12.012;2023-07-29T13:51:41;99822.13;;;21.36;100.00
19600;BME280;9947;57.722;12.012;2023-07-29T13:54:10;99814.66;;;21.17;100.00
19600;BME280;9947;57.722;12.012;2023-07-29T13:56:38;99816.22;;;21.46;100.00
19600;BME280;9947;57.722;12.012;2023-07-29T13:59:07;99807.34;;;21.70;100.00
19600;BME280;9947;57.722;12.012;2023-07-29T14:01:38;99810.50;;;22.07;100.00
19600;BME280;9947;57.722;12.012;2023-07-29T14:04:05;99808.81;;;21.53;100.00
19600;BME280;9947;57.722;12.012;2023-07-29T14:06:38;99803.31;;;21.93;100.00
19600;BME280;9947;57.722;12.012;2023-07-29T14:09:06;99808.81;;;21.93;100.00
19600;BME280;9947;57.722;12.012;2023-07-29T14:11:36;99806.69;;;21.88;100.00